createdAt,value
2022-12-17T00:02:16.697Z,22.55
2022-12-17T00:05:02.314Z,22.85
2022-12-17T00:07:49.412Z,22.95
2022-12-17T00:10:35.141Z,22.83
2022-12-17T00:13:20.793Z,19.33
2022-12-17T00:16:11.242Z,21.75
2022-12-17T00:18:58.524Z,19.55
2022-12-17T00:21:44.704Z,17.10
2022-12-17T00:24:30.324Z,18.23
2022-12-17T00:27:16.506Z,20.70
2022-12-17T00:30:02.201Z,20.17
2022-12-17T00:32:49.942Z,19.67
2022-12-17T00:35:52.496Z,18.50
2022-12-17T00:38:39.020Z,17.38
2022-12-17T00:41:24.659Z,18.48
2022-12-17T00:44:12.014Z,19.35
2022-12-17T00:46:57.800Z,18.83
2022-12-17T00:49:43.640Z,17.90
2022-12-17T00:52:29.377Z,17.27
2022-12-17T00:55:15.212Z,20.77
2022-12-17T00:58:01.074Z,19.98
2022-12-17T01:00:47.150Z,18.33
2022-12-17T01:03:34.181Z,17.73
2022-12-17T01:06:21.868Z,20.45
2022-12-17T01:09:07.463Z,19.95
2022-12-17T01:11:53.276Z,19.48
2022-12-17T01:14:43.495Z,17.35
2022-12-17T01:17:30.410Z,18.60
2022-12-17T01:20:16.204Z,16.73
2022-12-17T01:23:01.767Z,18.17
2022-12-17T01:25:47.603Z,16.88
2022-12-17T01:28:43.797Z,18.40
2022-12-17T01:31:34.867Z,19.15
2022-12-17T01:34:21.496Z,19.50
2022-12-17T01:37:07.154Z,17.05
2022-12-17T01:39:53.093Z,16.50
2022-12-17T01:42:38.609Z,16.58
2022-12-17T01:45:29.439Z,18.60
2022-12-17T01:48:22.311Z,19.73
2022-12-17T01:51:11.390Z,17.33
2022-12-17T01:54:12.394Z,17.60
2022-12-17T01:57:02.216Z,16.80
2022-12-17T02:00:01.465Z,18.17
2022-12-17T02:02:51.605Z,16.60
2022-12-17T02:05:42.173Z,15.93
2022-12-17T02:08:31.020Z,13.90
2022-12-17T02:11:26.349Z,17.05
2022-12-17T02:14:22.735Z,17.83
2022-12-17T02:17:16.322Z,13.50
2022-12-17T02:20:10.697Z,14.98
2022-12-17T02:23:09.415Z,13.75
2022-12-17T02:26:18.497Z,18.20
2022-12-17T02:29:08.322Z,16.08
2022-12-17T02:32:00.311Z,16.02
2022-12-17T02:34:45.948Z,15.77
2022-12-17T02:37:31.847Z,17.67
2022-12-17T02:40:17.962Z,15.82
2022-12-17T02:43:05.593Z,17.83
2022-12-17T02:45:52.928Z,18.08
2022-12-17T02:48:39.046Z,17.20
2022-12-17T02:51:25.244Z,16.70
2022-12-17T02:54:12.970Z,18.15
2022-12-17T02:56:58.492Z,16.08
2022-12-17T02:59:44.389Z,17.63
2022-12-17T03:02:30.206Z,16.25
2022-12-17T03:05:43.298Z,18.03
2022-12-17T03:08:21.654Z,16.38
2022-12-17T03:11:07.671Z,19.10
2022-12-17T03:13:53.533Z,16.92
2022-12-17T03:16:39.388Z,15.52
2022-12-17T03:19:25.136Z,16.88
2022-12-17T03:22:11.318Z,17.15
2022-12-17T03:24:57.028Z,18.48
2022-12-17T03:27:42.781Z,16.73
2022-12-17T03:30:33.207Z,17.98
2022-12-17T03:33:21.392Z,16.67
2022-12-17T03:36:07.017Z,15.40
2022-12-17T03:38:52.835Z,14.88
2022-12-17T03:41:38.380Z,16.70
2022-12-17T03:44:24.220Z,16.52
2022-12-17T03:47:09.928Z,15.43
2022-12-17T03:49:56.614Z,16.02
2022-12-17T03:52:42.310Z,19.98
2022-12-17T03:55:28.233Z,16.67
2022-12-17T03:58:13.913Z,15.75
2022-12-17T04:00:59.795Z,15.48
2022-12-17T04:03:45.465Z,17.30
2022-12-17T04:06:31.620Z,14.48
2022-12-17T04:09:17.404Z,15.88
2022-12-17T04:12:03.094Z,19.00
2022-12-17T04:14:49.044Z,15.32
2022-12-17T04:17:34.880Z,15.90
2022-12-17T04:20:20.674Z,14.38
2022-12-17T04:23:06.353Z,15.18
2022-12-17T04:25:52.051Z,16.27
2022-12-17T04:28:37.911Z,16.95
2022-12-17T04:31:23.636Z,16.35
2022-12-17T04:34:09.247Z,13.98
2022-12-17T04:36:55.260Z,15.43
2022-12-17T04:39:41.304Z,15.75
2022-12-17T04:42:27.059Z,14.77
2022-12-17T04:45:12.734Z,15.05
2022-12-17T04:47:58.317Z,14.32
2022-12-17T04:50:44.120Z,14.25
2022-12-17T04:53:30.136Z,15.13
2022-12-17T04:56:15.869Z,14.30
2022-12-17T04:59:01.524Z,14.60
2022-12-17T05:01:47.617Z,15.25
2022-12-17T05:04:33.340Z,17.20
2022-12-17T05:07:19.117Z,15.75
2022-12-17T05:10:04.897Z,15.55
2022-12-17T05:12:50.879Z,19.15
2022-12-17T05:15:36.194Z,20.17
2022-12-17T05:18:26.647Z,14.55
2022-12-17T05:21:13.680Z,18.10
2022-12-17T05:24:06.663Z,17.50
2022-12-17T05:26:52.330Z,16.23
2022-12-17T05:29:38.252Z,20.02
2022-12-17T05:32:24.195Z,20.48
2022-12-17T05:35:09.841Z,18.88
2022-12-17T05:37:55.665Z,16.05
2022-12-17T05:40:41.532Z,18.73
2022-12-17T05:43:50.465Z,17.45
2022-12-17T05:46:36.338Z,17.02
2022-12-17T05:49:21.916Z,18.13
2022-12-17T05:52:07.617Z,17.92
2022-12-17T05:54:53.341Z,18.20
2022-12-17T05:57:39.195Z,15.60
2022-12-17T06:00:25.726Z,16.63
2022-12-17T06:03:19.335Z,16.83
2022-12-17T06:06:05.848Z,17.10
2022-12-17T06:08:51.484Z,16.50
2022-12-17T06:11:37.057Z,15.68
2022-12-17T06:14:22.825Z,15.82
2022-12-17T06:17:08.950Z,17.05
2022-12-17T06:19:54.775Z,14.73
2022-12-17T06:22:40.528Z,15.82
2022-12-17T06:25:26.730Z,15.50
2022-12-17T06:28:20.045Z,15.35
2022-12-17T06:31:12.936Z,15.75
2022-12-17T06:33:59.742Z,15.55
2022-12-17T06:36:45.535Z,15.63
2022-12-17T06:39:31.151Z,14.80
2022-12-17T06:42:17.126Z,15.15
2022-12-17T06:45:02.886Z,15.38
2022-12-17T06:47:49.122Z,14.32
2022-12-17T06:50:34.851Z,15.30
2022-12-17T06:53:21.905Z,14.95
2022-12-17T06:56:24.270Z,17.00
2022-12-17T06:59:10.087Z,15.18
2022-12-17T07:01:55.876Z,15.45
2022-12-17T07:04:41.542Z,15.93
2022-12-17T07:07:27.270Z,15.25
2022-12-17T07:10:14.452Z,14.48
2022-12-17T07:13:00.696Z,18.50
2022-12-17T07:15:46.393Z,17.08
2022-12-17T07:18:31.970Z,17.63
2022-12-17T07:21:17.815Z,16.42
2022-12-17T07:24:03.549Z,16.10
2022-12-17T07:26:50.224Z,18.90
2022-12-17T07:29:36.013Z,17.20
2022-12-17T07:32:21.758Z,18.45
2022-12-17T07:35:07.819Z,16.98
2022-12-17T07:37:53.581Z,16.23
2022-12-17T07:40:39.283Z,17.27
2022-12-17T07:43:32.613Z,17.48
2022-12-17T07:49:03.939Z,15.55
2022-12-17T07:51:49.770Z,17.20
2022-12-17T07:54:35.689Z,19.13
2022-12-17T07:57:21.302Z,15.88
2022-12-17T08:00:07.246Z,15.32
2022-12-17T08:02:53.245Z,15.85
2022-12-17T08:05:38.806Z,14.57
2022-12-17T08:08:31.423Z,16.40
2022-12-17T08:11:17.597Z,20.13
2022-12-17T08:14:03.874Z,16.08
2022-12-17T08:16:50.583Z,16.20
2022-12-17T08:19:36.411Z,15.70
2022-12-17T08:22:22.122Z,17.27
2022-12-17T08:25:07.740Z,17.27
2022-12-17T08:27:53.551Z,15.20
2022-12-17T08:30:40.212Z,16.17
2022-12-17T08:33:26.233Z,15.88
2022-12-17T08:36:14.102Z,17.30
2022-12-17T08:38:59.998Z,18.73
2022-12-17T08:41:51.105Z,18.50
2022-12-17T08:44:40.884Z,17.65
2022-12-17T08:47:26.659Z,17.80
2022-12-17T08:50:12.590Z,16.17
2022-12-17T08:52:58.154Z,19.63
2022-12-17T08:55:43.992Z,18.77
2022-12-17T08:58:29.511Z,17.70
2022-12-17T09:01:19.157Z,16.17
2022-12-17T09:04:05.765Z,16.15
2022-12-17T09:06:52.294Z,17.05
2022-12-17T09:09:38.078Z,17.00
2022-12-17T09:12:24.806Z,19.08
2022-12-17T09:15:10.542Z,16.77
2022-12-17T09:17:56.392Z,16.77
2022-12-17T09:20:42.091Z,16.30
2022-12-17T09:23:27.839Z,15.25
2022-12-17T09:26:23.456Z,16.65
2022-12-17T09:29:09.370Z,18.15
2022-12-17T09:31:55.067Z,18.08
2022-12-17T09:34:40.829Z,16.45
2022-12-17T09:37:26.682Z,17.73
2022-12-17T09:40:13.974Z,18.08
2022-12-17T09:43:19.994Z,19.77
2022-12-17T09:46:08.344Z,16.50
2022-12-17T09:48:58.057Z,18.33
2022-12-17T09:51:46.197Z,15.77
2022-12-17T09:54:56.300Z,16.08
2022-12-17T09:57:50.681Z,15.90
2022-12-17T10:00:37.997Z,16.98
2022-12-17T10:03:37.548Z,14.27
2022-12-17T10:06:30.913Z,17.60
2022-12-17T10:09:29.543Z,15.13
2022-12-17T10:12:18.631Z,16.70
2022-12-17T10:15:04.372Z,15.77
2022-12-17T10:17:50.224Z,16.52
2022-12-17T10:20:55.947Z,16.70
2022-12-17T10:23:52.653Z,16.02
2022-12-17T10:26:56.200Z,15.02
2022-12-17T10:32:35.862Z,17.08
2022-12-17T10:35:35.549Z,17.38
2022-12-17T10:38:38.237Z,17.55
2022-12-17T10:41:23.989Z,15.55
2022-12-17T10:44:10.426Z,16.55
2022-12-17T10:46:56.222Z,16.15
2022-12-17T10:49:43.365Z,15.13
2022-12-17T10:52:50.611Z,15.45
2022-12-17T10:55:45.458Z,16.08
2022-12-17T10:59:01.961Z,15.88
2022-12-17T11:01:47.669Z,16.08
2022-12-17T11:04:46.933Z,15.63
2022-12-17T11:07:41.059Z,16.48
2022-12-17T11:10:34.421Z,14.65
2022-12-17T11:13:29.490Z,15.00
2022-12-17T11:16:17.538Z,14.55
2022-12-17T11:19:40.379Z,16.15
2022-12-17T11:22:47.844Z,14.60
2022-12-17T11:26:01.130Z,14.93
2022-12-17T11:28:51.803Z,14.80
2022-12-17T11:31:37.844Z,15.57
2022-12-17T11:34:44.360Z,15.68
2022-12-17T11:37:40.343Z,15.50
2022-12-17T11:40:54.332Z,15.43
2022-12-17T11:43:54.817Z,14.20
2022-12-17T11:47:01.174Z,15.50
2022-12-17T11:49:55.789Z,16.70
2022-12-17T11:53:02.898Z,14.20
2022-12-17T11:55:57.582Z,15.27
2022-12-17T11:58:54.977Z,16.77
2022-12-17T12:01:43.504Z,16.65
2022-12-17T12:04:47.838Z,15.68
2022-12-17T12:07:56.559Z,16.65
2022-12-17T12:10:54.793Z,15.52
2022-12-17T12:14:04.844Z,13.95
2022-12-17T12:17:27.233Z,14.30
2022-12-17T12:20:30.749Z,18.52
2022-12-17T12:26:17.570Z,14.77
2022-12-17T12:29:19.677Z,14.73
2022-12-17T12:32:18.934Z,14.77
2022-12-17T12:35:05.047Z,14.73
2022-12-17T12:37:51.976Z,17.35
2022-12-17T12:40:43.645Z,13.35
2022-12-17T12:43:29.815Z,15.45
2022-12-17T12:46:23.700Z,14.65
2022-12-17T12:49:30.972Z,15.05
2022-12-17T12:52:19.137Z,15.30
2022-12-17T12:55:05.048Z,16.15
2022-12-17T12:57:51.793Z,14.52
2022-12-17T13:00:52.559Z,15.75
2022-12-17T13:03:49.403Z,15.10
2022-12-17T13:06:49.029Z,15.65
2022-12-17T13:09:20.809Z,18.90
2022-12-17T13:12:03.344Z,16.20
2022-12-17T13:14:44.350Z,15.57
2022-12-17T13:17:17.622Z,17.50
2022-12-17T13:19:58.058Z,15.05
2022-12-17T13:22:25.200Z,15.70
2022-12-17T13:25:08.900Z,15.90
2022-12-17T13:27:36.455Z,15.50
2022-12-17T13:30:12.898Z,16.67
2022-12-17T13:32:59.420Z,16.27
2022-12-17T13:36:08.803Z,17.60
2022-12-17T13:38:45.094Z,17.52
2022-12-17T13:41:15.373Z,15.60
2022-12-17T13:43:44.447Z,17.88
2022-12-17T13:46:47.488Z,18.05
2022-12-17T13:51:47.036Z,16.63
2022-12-17T13:54:19.486Z,18.80
2022-12-17T13:56:46.852Z,19.90
2022-12-17T13:59:23.009Z,16.80
2022-12-17T14:01:54.459Z,20.50
2022-12-17T14:04:23.007Z,16.63
2022-12-17T14:06:51.976Z,16.60
2022-12-17T14:09:21.396Z,17.05
2022-12-17T14:12:08.652Z,17.55
2022-12-17T14:14:49.786Z,17.52
2022-12-17T14:17:19.537Z,16.73
2022-12-17T14:19:48.024Z,20.35
2022-12-17T14:22:33.864Z,17.67
2022-12-17T14:25:01.700Z,18.08
2022-12-17T14:27:35.499Z,18.60
2022-12-17T14:30:19.473Z,13.90
2022-12-17T14:32:47.140Z,17.52
2022-12-17T14:35:39.911Z,17.80
2022-12-17T14:38:37.055Z,18.50
2022-12-17T14:41:31.214Z,18.30
2022-12-17T14:44:00.346Z,19.00
2022-12-17T14:46:29.435Z,19.00
2022-12-17T14:49:02.021Z,17.25
2022-12-17T14:51:31.137Z,16.52
2022-12-17T14:54:19.850Z,17.30
2022-12-17T14:56:49.210Z,18.75
2022-12-17T14:59:26.985Z,15.63
2022-12-17T15:01:56.409Z,17.38
2022-12-17T15:04:24.015Z,18.95
2022-12-17T15:06:55.446Z,18.85
2022-12-17T15:09:22.636Z,18.48
2022-12-17T15:11:49.789Z,17.60
2022-12-17T15:14:16.986Z,17.58
2022-12-17T15:16:44.144Z,16.13
2022-12-17T15:19:11.295Z,21.33
2022-12-17T15:21:38.832Z,16.42
2022-12-17T15:24:11.245Z,21.63
2022-12-17T15:26:41.590Z,17.23
2022-12-17T15:29:08.658Z,16.65
2022-12-17T15:31:36.190Z,17.02
2022-12-17T15:34:03.375Z,16.35
2022-12-17T15:36:33.889Z,17.40
2022-12-17T15:39:01.037Z,15.57
2022-12-17T15:41:46.525Z,18.13
2022-12-17T15:44:13.892Z,19.40
2022-12-17T15:46:41.027Z,16.48
2022-12-17T15:49:08.223Z,17.75
2022-12-17T15:51:35.330Z,17.48
2022-12-17T15:54:02.490Z,20.38
2022-12-17T15:56:29.698Z,19.23
2022-12-17T15:58:59.653Z,19.20
2022-12-17T16:01:27.281Z,17.23
2022-12-17T16:03:54.699Z,22.15
2022-12-17T16:06:21.952Z,20.60
2022-12-17T16:08:49.090Z,18.13
2022-12-17T16:11:16.363Z,23.73
2022-12-17T16:13:44.045Z,22.15
2022-12-17T16:16:11.255Z,20.63
2022-12-17T16:18:39.744Z,21.45
2022-12-17T16:21:08.843Z,22.75
2022-12-17T16:23:36.386Z,19.25
2022-12-17T16:26:07.580Z,22.67
2022-12-17T16:28:36.629Z,19.98
2022-12-17T16:31:08.981Z,20.80
2022-12-17T16:33:40.735Z,20.17
2022-12-17T16:36:09.167Z,21.25
2022-12-17T16:38:36.906Z,19.25
2022-12-17T16:41:04.586Z,18.33
2022-12-17T16:43:34.262Z,24.42
2022-12-17T16:46:05.436Z,21.55
2022-12-17T16:48:39.587Z,22.80
2022-12-17T16:51:27.937Z,24.63
2022-12-17T16:53:55.989Z,22.15
2022-12-17T16:56:26.353Z,25.35
2022-12-17T16:58:54.258Z,21.63
2022-12-17T17:01:26.665Z,21.23
2022-12-17T17:03:54.990Z,23.05
2022-12-17T17:06:23.178Z,25.05
2022-12-17T17:08:50.636Z,24.70
2022-12-17T17:11:23.445Z,25.15
2022-12-17T17:16:22.801Z,24.67
2022-12-17T17:18:50.257Z,25.88
2022-12-17T17:21:25.577Z,28.08
2022-12-17T17:24:01.590Z,25.35
2022-12-17T17:26:32.294Z,23.60
2022-12-17T17:29:00.239Z,25.25
2022-12-17T17:32:01.183Z,23.48
2022-12-17T17:34:15.919Z,26.65
2022-12-17T17:36:43.454Z,26.35
2022-12-17T17:39:11.063Z,27.63
2022-12-17T17:41:38.272Z,26.48
2022-12-17T17:44:07.671Z,26.85
2022-12-17T17:46:35.847Z,27.48
2022-12-17T17:49:05.695Z,29.05
2022-12-17T17:52:08.441Z,25.75
2022-12-17T17:54:24.595Z,25.88
2022-12-17T17:56:51.823Z,28.88
2022-12-17T17:59:19.581Z,26.95
2022-12-17T18:01:51.676Z,28.30
2022-12-17T18:04:21.451Z,29.98
2022-12-17T18:07:23.157Z,25.98
2022-12-17T18:09:37.542Z,25.27
2022-12-17T18:12:24.753Z,28.05
2022-12-17T18:15:13.098Z,27.38
2022-12-17T18:17:39.898Z,27.35
2022-12-17T18:20:07.555Z,28.30
2022-12-17T18:22:34.647Z,31.08
2022-12-17T18:25:01.761Z,26.25
2022-12-17T18:27:30.326Z,28.75
2022-12-17T18:29:57.602Z,28.92
2022-12-17T18:32:24.777Z,29.45
2022-12-17T18:34:51.965Z,30.67
2022-12-17T18:37:19.078Z,27.55
2022-12-17T18:39:46.571Z,27.58
2022-12-17T18:42:32.759Z,28.20
2022-12-17T18:44:59.881Z,28.40
2022-12-17T18:47:27.204Z,25.90
2022-12-17T18:49:54.411Z,26.80
2022-12-17T18:52:23.690Z,28.50
2022-12-17T18:54:50.786Z,32.20
2022-12-17T18:57:17.844Z,28.67
2022-12-17T18:59:45.078Z,31.58
2022-12-17T19:02:13.629Z,29.35
2022-12-17T19:04:41.457Z,30.00
2022-12-17T19:07:08.628Z,28.13
2022-12-17T19:09:36.395Z,27.42
2022-12-17T19:12:05.556Z,24.75
2022-12-17T19:14:33.650Z,28.20
2022-12-17T19:17:01.205Z,28.38
2022-12-17T19:19:28.475Z,27.48
2022-12-17T19:21:56.128Z,27.40
2022-12-17T19:24:23.814Z,30.83
2022-12-17T19:26:51.855Z,30.23
2022-12-17T19:29:21.096Z,28.58
2022-12-17T19:31:48.622Z,29.80
2022-12-17T19:34:17.743Z,27.10
2022-12-17T19:36:45.782Z,28.23
2022-12-17T19:39:16.438Z,27.95
2022-12-17T19:41:44.044Z,29.45
2022-12-17T19:44:16.121Z,28.15
2022-12-17T19:46:44.218Z,26.92
2022-12-17T19:49:13.371Z,27.48
2022-12-17T19:51:43.133Z,29.13
2022-12-17T19:54:12.511Z,26.13
2022-12-17T19:56:39.705Z,26.40
2022-12-17T19:59:08.482Z,25.55
2022-12-17T20:01:39.339Z,26.65
2022-12-17T20:04:06.746Z,25.55
2022-12-17T20:06:35.271Z,25.00
2022-12-17T20:09:04.549Z,26.33
2022-12-17T20:11:35.391Z,22.25
2022-12-17T20:14:10.913Z,28.20
2022-12-17T20:16:49.912Z,23.38
2022-12-17T20:19:22.560Z,22.40
2022-12-17T20:21:50.014Z,23.25
2022-12-17T20:24:17.863Z,23.85
2022-12-17T20:26:46.430Z,23.60
2022-12-17T20:29:13.591Z,24.40
2022-12-17T20:31:48.032Z,22.35
2022-12-17T20:34:18.842Z,23.42
2022-12-17T20:36:49.443Z,23.77
2022-12-17T20:39:18.837Z,22.23
2022-12-17T20:41:51.788Z,21.88
2022-12-17T20:44:18.960Z,24.60
2022-12-17T20:46:46.028Z,21.88
2022-12-17T20:49:14.910Z,21.67
2022-12-17T20:51:42.249Z,23.27
2022-12-17T20:54:10.864Z,21.27
2022-12-17T20:56:40.421Z,24.65
2022-12-17T20:59:09.377Z,21.20
2022-12-17T21:01:37.498Z,19.88
2022-12-17T21:04:08.658Z,20.67
2022-12-17T21:06:47.354Z,21.50
2022-12-17T21:09:16.215Z,20.13
2022-12-17T21:11:43.317Z,21.50
2022-12-17T21:14:13.547Z,18.15
2022-12-17T21:16:41.892Z,19.40
2022-12-17T21:19:11.772Z,21.13
2022-12-17T21:21:39.295Z,17.35
2022-12-17T21:24:08.487Z,19.27
2022-12-17T21:26:38.931Z,20.92
2022-12-17T21:29:07.919Z,23.13
2022-12-17T21:31:40.953Z,20.88
2022-12-17T21:34:11.860Z,20.23
2022-12-17T21:36:39.682Z,16.17
2022-12-17T21:39:09.872Z,23.63
2022-12-17T21:41:44.720Z,18.23
2022-12-17T21:44:14.855Z,19.63
2022-12-17T21:46:43.118Z,20.83
2022-12-17T21:49:11.288Z,20.77
2022-12-17T21:51:38.656Z,16.73
2022-12-17T21:54:08.544Z,19.83
2022-12-17T21:56:36.770Z,19.63
2022-12-17T21:59:04.236Z,20.58
2022-12-17T22:01:33.928Z,17.58
2022-12-17T22:04:05.128Z,18.45
2022-12-17T22:06:47.752Z,19.05
2022-12-17T22:09:31.190Z,19.10
2022-12-17T22:12:23.440Z,18.10
2022-12-17T22:14:50.795Z,16.90
2022-12-17T22:17:18.042Z,17.95
2022-12-17T22:19:45.489Z,22.85
2022-12-17T22:22:12.933Z,19.48
2022-12-17T22:24:40.232Z,16.75
2022-12-17T22:27:09.750Z,18.60
2022-12-17T22:29:55.660Z,15.02
2022-12-17T22:32:41.494Z,16.63
2022-12-17T22:35:51.756Z,16.08
2022-12-17T22:40:09.084Z,17.85
2022-12-17T22:44:33.534Z,17.73
2022-12-17T22:44:44.171Z,17.40
2022-12-17T22:46:19.239Z,15.13
2022-12-17T22:48:46.507Z,16.08
2022-12-17T22:51:16.399Z,17.52
2022-12-17T22:53:52.078Z,17.42
2022-12-17T22:56:54.582Z,15.55
2022-12-17T22:59:08.392Z,15.30
2022-12-17T23:01:35.818Z,17.33
2022-12-17T23:04:04.742Z,15.23
2022-12-17T23:06:31.910Z,17.60
2022-12-17T23:08:59.199Z,14.80
2022-12-17T23:11:46.878Z,15.68
2022-12-17T23:14:14.130Z,14.82
2022-12-17T23:16:41.682Z,18.55
2022-12-17T23:19:09.685Z,17.83
2022-12-17T23:21:37.150Z,14.98
2022-12-17T23:24:04.907Z,15.55
2022-12-17T23:26:35.417Z,16.20
2022-12-17T23:29:06.368Z,14.20
2022-12-17T23:31:36.369Z,15.73
2022-12-17T23:34:04.811Z,17.00
2022-12-17T23:36:32.344Z,15.35
2022-12-17T23:38:59.987Z,14.57
2022-12-17T23:41:31.443Z,17.50
2022-12-17T23:43:59.497Z,13.57
2022-12-17T23:46:28.554Z,14.50
2022-12-17T23:48:55.812Z,15.73
2022-12-17T23:51:24.296Z,16.98
2022-12-17T23:53:51.678Z,16.38
2022-12-17T23:56:24.820Z,15.15
2022-12-17T23:58:55.180Z,15.73
